sensor_id;sensor_type;location;lat;lon;timestamp;temperature;humidity
14733;DHT22;7457;50.960;6.830;2023-05-23T00:01:05;14.50;89.10
14733;DHT22;7457;50.960;6.830;2023-05-23T00:03:33;14.50;89.20
14733;DHT22;7457;50.960;6.830;2023-05-23T00:05:59;14.40;89.30
14733;DHT22;7457;50.960;6.830;2023-05-23T00:08:25;14.40;89.40
14733;DHT22;7457;50.960;6.830;2023-05-23T00:10:51;14.40;89.40
14733;DHT22;7457;50.960;6.830;2023-05-23T00:13:17;14.40;89.40
14733;DHT22;7457;50.960;6.830;2023-05-23T00:15:43;14.30;89.40
14733;DHT22;7457;50.960;6.830;2023-05-23T00:18:09;14.30;89.50
14733;DHT22;7457;50.960;6.830;2023-05-23T00:20:40;14.20;89.70
14733;DHT22;7457;50.960;6.830;2023-05-23T00:23:07;14.20;89.70
14733;DHT22;7457;50.960;6.830;2023-05-23T00:25:37;14.20;89.80
14733;DHT22;7457;50.960;6.830;2023-05-23T00:28:05;14.10;89.80
14733;DHT22;7457;50.960;6.830;2023-05-23T00:30:32;14.10;89.90
14733;DHT22;7457;50.960;6.830;2023-05-23T00:32:58;14.10;90.00
14733;DHT22;7457;50.960;6.830;2023-05-23T00:35:25;14.00;90.00
14733;DHT22;7457;50.960;6.830;2023-05-23T00:37:51;14.00;90.20
14733;DHT22;7457;50.960;6.830;2023-05-23T00:40:20;14.00;90.30
14733;DHT22;7457;50.960;6.830;2023-05-23T00:42:47;13.90;90.50
14733;DHT22;7457;50.960;6.830;2023-05-23T00:45:13;14.00;90.60
14733;DHT22;7457;50.960;6.830;2023-05-23T00:47:40;14.00;90.60
14733;DHT22;7457;50.960;6.830;2023-05-23T00:50:07;14.00;90.70
14733;DHT22;7457;50.960;6.830;2023-05-23T00:52:34;14.00;90.80
14733;DHT22;7457;50.960;6.830;2023-05-23T00:55:00;14.10;91.00
14733;DHT22;7457;50.960;6.830;2023-05-23T00:57:26;14.10;90.90
14733;DHT22;7457;50.960;6.830;2023-05-23T00:59:52;14.20;91.00
14733;DHT22;7457;50.960;6.830;2023-05-23T01:02:18;14.30;90.90
14733;DHT22;7457;50.960;6.830;2023-05-23T01:04:47;14.40;90.90
14733;DHT22;7457;50.960;6.830;2023-05-23T01:07:18;14.40;90.70
14733;DHT22;7457;50.960;6.830;2023-05-23T01:09:45;14.50;90.60
14733;DHT22;7457;50.960;6.830;2023-05-23T01:17:56;14.70;90.20
14733;DHT22;7457;50.960;6.830;2023-05-23T01:20:27;14.80;90.00
14733;DHT22;7457;50.960;6.830;2023-05-23T01:28:16;14.90;89.90
14733;DHT22;7457;50.960;6.830;2023-05-23T01:30:44;14.90;89.80
14733;DHT22;7457;50.960;6.830;2023-05-23T01:33:13;14.90;89.80
14733;DHT22;7457;50.960;6.830;2023-05-23T01:35:42;15.00;89.70
14733;DHT22;7457;50.960;6.830;2023-05-23T01:38:08;15.00;89.70
14733;DHT22;7457;50.960;6.830;2023-05-23T01:40:34;15.00;89.50
14733;DHT22;7457;50.960;6.830;2023-05-23T01:43:01;15.00;89.30
14733;DHT22;7457;50.960;6.830;2023-05-23T01:45:28;15.00;89.00
14733;DHT22;7457;50.960;6.830;2023-05-23T01:47:54;15.00;88.80
14733;DHT22;7457;50.960;6.830;2023-05-23T01:50:21;15.00;88.50
14733;DHT22;7457;50.960;6.830;2023-05-23T01:52:48;15.00;88.30
14733;DHT22;7457;50.960;6.830;2023-05-23T01:55:16;15.00;87.90
14733;DHT22;7457;50.960;6.830;2023-05-23T01:57:55;14.90;87.60
14733;DHT22;7457;50.960;6.830;2023-05-23T02:00:21;14.90;87.30
14733;DHT22;7457;50.960;6.830;2023-05-23T02:02:47;14.90;87.20
14733;DHT22;7457;50.960;6.830;2023-05-23T02:05:12;14.90;87.10
14733;DHT22;7457;50.960;6.830;2023-05-23T02:07:38;14.90;87.10
14733;DHT22;7457;50.960;6.830;2023-05-23T02:10:07;14.80;87.10
14733;DHT22;7457;50.960;6.830;2023-05-23T02:12:32;14.80;87.00
14733;DHT22;7457;50.960;6.830;2023-05-23T02:14:58;14.80;86.90
14733;DHT22;7457;50.960;6.830;2023-05-23T02:17:24;14.80;86.80
14733;DHT22;7457;50.960;6.830;2023-05-23T02:19:49;14.80;86.70
14733;DHT22;7457;50.960;6.830;2023-05-23T02:22:15;14.80;86.70
14733;DHT22;7457;50.960;6.830;2023-05-23T02:24:41;14.80;86.60
14733;DHT22;7457;50.960;6.830;2023-05-23T02:27:07;14.80;86.60
14733;DHT22;7457;50.960;6.830;2023-05-23T02:29:32;14.80;86.60
14733;DHT22;7457;50.960;6.830;2023-05-23T02:31:58;14.80;86.60
14733;DHT22;7457;50.960;6.830;2023-05-23T02:34:24;14.80;86.60
14733;DHT22;7457;50.960;6.830;2023-05-23T02:36:50;14.70;86.60
14733;DHT22;7457;50.960;6.830;2023-05-23T02:39:16;14.80;86.60
14733;DHT22;7457;50.960;6.830;2023-05-23T02:41:42;14.70;86.60
14733;DHT22;7457;50.960;6.830;2023-05-23T02:44:08;14.80;86.60
14733;DHT22;7457;50.960;6.830;2023-05-23T02:46:33;14.80;86.50
14733;DHT22;7457;50.960;6.830;2023-05-23T02:48:59;14.70;86.50
14733;DHT22;7457;50.960;6.830;2023-05-23T02:51:25;14.80;86.50
14733;DHT22;7457;50.960;6.830;2023-05-23T02:53:50;14.80;86.50
14733;DHT22;7457;50.960;6.830;2023-05-23T02:56:16;14.80;86.60
14733;DHT22;7457;50.960;6.830;2023-05-23T02:58:43;14.70;86.60
14733;DHT22;7457;50.960;6.830;2023-05-23T03:01:08;14.80;86.60
14733;DHT22;7457;50.960;6.830;2023-05-23T03:03:34;14.70;86.70
14733;DHT22;7457;50.960;6.830;2023-05-23T03:06:01;14.70;86.70
14733;DHT22;7457;50.960;6.830;2023-05-23T03:08:27;14.70;86.70
14733;DHT22;7457;50.960;6.830;2023-05-23T03:10:53;14.70;86.80
14733;DHT22;7457;50.960;6.830;2023-05-23T03:13:18;14.70;86.90
14733;DHT22;7457;50.960;6.830;2023-05-23T03:15:44;14.70;87.00
14733;DHT22;7457;50.960;6.830;2023-05-23T03:18:10;14.70;87.00
14733;DHT22;7457;50.960;6.830;2023-05-23T03:20:37;14.70;87.00
14733;DHT22;7457;50.960;6.830;2023-05-23T03:23:02;14.70;87.10
14733;DHT22;7457;50.960;6.830;2023-05-23T03:25:28;14.70;87.20
14733;DHT22;7457;50.960;6.830;2023-05-23T03:27:53;14.70;87.10
14733;DHT22;7457;50.960;6.830;2023-05-23T03:30:20;14.70;87.20
14733;DHT22;7457;50.960;6.830;2023-05-23T03:32:46;14.60;87.40
14733;DHT22;7457;50.960;6.830;2023-05-23T03:35:11;14.60;87.50
14733;DHT22;7457;50.960;6.830;2023-05-23T03:37:37;14.50;87.50
14733;DHT22;7457;50.960;6.830;2023-05-23T03:40:03;14.50;88.00
14733;DHT22;7457;50.960;6.830;2023-05-23T03:42:29;14.40;88.30
14733;DHT22;7457;50.960;6.830;2023-05-23T03:44:55;14.40;88.30
14733;DHT22;7457;50.960;6.830;2023-05-23T03:47:21;14.40;88.50
14733;DHT22;7457;50.960;6.830;2023-05-23T03:49:48;14.40;88.60
14733;DHT22;7457;50.960;6.830;2023-05-23T03:52:14;14.40;88.60
14733;DHT22;7457;50.960;6.830;2023-05-23T03:54:40;14.40;88.70
14733;DHT22;7457;50.960;6.830;2023-05-23T03:57:06;14.40;88.70
14733;DHT22;7457;50.960;6.830;2023-05-23T03:59:32;14.40;88.60
14733;DHT22;7457;50.960;6.830;2023-05-23T04:01:58;14.40;88.60
14733;DHT22;7457;50.960;6.830;2023-05-23T04:04:25;14.40;88.50
14733;DHT22;7457;50.960;6.830;2023-05-23T04:06:51;14.40;88.50
14733;DHT22;7457;50.960;6.830;2023-05-23T04:09:17;14.40;88.40
14733;DHT22;7457;50.960;6.830;2023-05-23T04:11:43;14.40;88.20
14733;DHT22;7457;50.960;6.830;2023-05-23T04:14:08;14.40;88.10
14733;DHT22;7457;50.960;6.830;2023-05-23T04:16:36;14.40;88.10
14733;DHT22;7457;50.960;6.830;2023-05-23T04:19:02;14.40;88.00
14733;DHT22;7457;50.960;6.830;2023-05-23T04:21:29;14.50;88.00
14733;DHT22;7457;50.960;6.830;2023-05-23T04:23:55;14.50;87.90
14733;DHT22;7457;50.960;6.830;2023-05-23T04:26:21;14.50;88.00
14733;DHT22;7457;50.960;6.830;2023-05-23T04:28:46;14.50;88.00
14733;DHT22;7457;50.960;6.830;2023-05-23T04:31:13;14.50;88.00
14733;DHT22;7457;50.960;6.830;2023-05-23T04:33:39;14.40;88.10
14733;DHT22;7457;50.960;6.830;2023-05-23T04:36:05;14.40;88.10
14733;DHT22;7457;50.960;6.830;2023-05-23T04:38:34;14.40;88.20
14733;DHT22;7457;50.960;6.830;2023-05-23T04:41:00;14.40;88.30
14733;DHT22;7457;50.960;6.830;2023-05-23T04:43:25;14.40;88.30
14733;DHT22;7457;50.960;6.830;2023-05-23T04:45:53;14.40;88.20
14733;DHT22;7457;50.960;6.830;2023-05-23T04:48:19;14.40;88.30
14733;DHT22;7457;50.960;6.830;2023-05-23T04:50:46;14.40;88.50
14733;DHT22;7457;50.960;6.830;2023-05-23T04:53:13;14.40;88.40
14733;DHT22;7457;50.960;6.830;2023-05-23T04:55:39;14.40;88.50
14733;DHT22;7457;50.960;6.830;2023-05-23T04:58:04;14.40;88.50
14733;DHT22;7457;50.960;6.830;2023-05-23T05:00:30;14.40;88.50
14733;DHT22;7457;50.960;6.830;2023-05-23T05:02:55;14.40;88.60
14733;DHT22;7457;50.960;6.830;2023-05-23T05:05:21;14.40;88.70
14733;DHT22;7457;50.960;6.830;2023-05-23T05:07:47;14.40;88.70
14733;DHT22;7457;50.960;6.830;2023-05-23T05:10:14;14.50;88.60
14733;DHT22;7457;50.960;6.830;2023-05-23T05:12:46;14.50;88.60
14733;DHT22;7457;50.960;6.830;2023-05-23T05:15:15;14.50;88.70
14733;DHT22;7457;50.960;6.830;2023-05-23T05:17:43;14.50;88.60
14733;DHT22;7457;50.960;6.830;2023-05-23T05:20:09;14.50;88.60
14733;DHT22;7457;50.960;6.830;2023-05-23T05:22:36;14.50;88.70
14733;DHT22;7457;50.960;6.830;2023-05-23T05:25:08;14.50;88.80
14733;DHT22;7457;50.960;6.830;2023-05-23T05:27:34;14.50;88.80
14733;DHT22;7457;50.960;6.830;2023-05-23T05:30:04;14.60;88.80
14733;DHT22;7457;50.960;6.830;2023-05-23T05:32:30;14.60;88.80
14733;DHT22;7457;50.960;6.830;2023-05-23T05:35:01;14.60;88.80
14733;DHT22;7457;50.960;6.830;2023-05-23T05:37:27;14.60;88.70
14733;DHT22;7457;50.960;6.830;2023-05-23T05:39:53;14.60;88.70
14733;DHT22;7457;50.960;6.830;2023-05-23T05:42:20;14.60;88.70
14733;DHT22;7457;50.960;6.830;2023-05-23T05:44:46;14.60;88.70
14733;DHT22;7457;50.960;6.830;2023-05-23T05:47:12;14.50;88.70
14733;DHT22;7457;50.960;6.830;2023-05-23T05:49:38;14.50;88.70
14733;DHT22;7457;50.960;6.830;2023-05-23T05:52:05;14.50;88.90
14733;DHT22;7457;50.960;6.830;2023-05-23T05:54:31;14.50;88.90
14733;DHT22;7457;50.960;6.830;2023-05-23T05:56:57;14.50;88.90
14733;DHT22;7457;50.960;6.830;2023-05-23T05:59:22;14.50;89.00
14733;DHT22;7457;50.960;6.830;2023-05-23T06:01:48;14.50;89.10
14733;DHT22;7457;50.960;6.830;2023-05-23T06:04:16;14.50;89.00
14733;DHT22;7457;50.960;6.830;2023-05-23T06:06:41;14.50;89.40
14733;DHT22;7457;50.960;6.830;2023-05-23T06:09:07;14.50;89.40
14733;DHT22;7457;50.960;6.830;2023-05-23T06:11:33;14.50;89.40
14733;DHT22;7457;50.960;6.830;2023-05-23T06:13:58;14.50;89.30
14733;DHT22;7457;50.960;6.830;2023-05-23T06:16:24;14.50;89.30
14733;DHT22;7457;50.960;6.830;2023-05-23T06:18:50;14.50;89.60
14733;DHT22;7457;50.960;6.830;2023-05-23T06:21:15;14.50;89.80
14733;DHT22;7457;50.960;6.830;2023-05-23T06:23:41;14.50;89.90
14733;DHT22;7457;50.960;6.830;2023-05-23T06:26:06;14.50;89.80
14733;DHT22;7457;50.960;6.830;2023-05-23T06:28:36;14.50;89.80
14733;DHT22;7457;50.960;6.830;2023-05-23T06:31:03;14.60;89.80
14733;DHT22;7457;50.960;6.830;2023-05-23T06:33:29;14.60;89.80
14733;DHT22;7457;50.960;6.830;2023-05-23T06:35:55;14.60;89.60
14733;DHT22;7457;50.960;6.830;2023-05-23T06:38:21;14.70;89.50
14733;DHT22;7457;50.960;6.830;2023-05-23T06:40:47;14.70;89.30
14733;DHT22;7457;50.960;6.830;2023-05-23T06:43:13;14.70;89.40
14733;DHT22;7457;50.960;6.830;2023-05-23T06:45:38;14.70;89.30
14733;DHT22;7457;50.960;6.830;2023-05-23T06:48:04;14.70;89.20
14733;DHT22;7457;50.960;6.830;2023-05-23T06:50:30;14.70;89.50
14733;DHT22;7457;50.960;6.830;2023-05-23T06:52:56;14.70;89.90
14733;DHT22;7457;50.960;6.830;2023-05-23T06:55:22;14.70;90.00
14733;DHT22;7457;50.960;6.830;2023-05-23T06:57:48;14.80;90.00
14733;DHT22;7457;50.960;6.830;2023-05-23T07:00:16;14.90;89.90
14733;DHT22;7457;50.960;6.830;2023-05-23T07:02:42;15.00;89.80
14733;DHT22;7457;50.960;6.830;2023-05-23T07:05:10;15.00;89.50
14733;DHT22;7457;50.960;6.830;2023-05-23T07:07:35;15.10;89.30
14733;DHT22;7457;50.960;6.830;2023-05-23T07:10:01;15.10;89.10
14733;DHT22;7457;50.960;6.830;2023-05-23T07:12:27;15.10;88.80
14733;DHT22;7457;50.960;6.830;2023-05-23T07:14:52;15.10;88.80
14733;DHT22;7457;50.960;6.830;2023-05-23T07:17:18;15.10;89.00
14733;DHT22;7457;50.960;6.830;2023-05-23T07:19:44;15.10;89.10
14733;DHT22;7457;50.960;6.830;2023-05-23T07:22:10;15.20;89.20
14733;DHT22;7457;50.960;6.830;2023-05-23T07:24:36;15.20;89.30
14733;DHT22;7457;50.960;6.830;2023-05-23T07:27:02;15.30;89.30
14733;DHT22;7457;50.960;6.830;2023-05-23T07:29:28;15.40;89.00
14733;DHT22;7457;50.960;6.830;2023-05-23T07:31:53;15.50;88.80
14733;DHT22;7457;50.960;6.830;2023-05-23T07:34:19;15.60;88.30
14733;DHT22;7457;50.960;6.830;2023-05-23T07:36:45;15.60;88.00
14733;DHT22;7457;50.960;6.830;2023-05-23T07:39:12;15.70;88.00
14733;DHT22;7457;50.960;6.830;2023-05-23T07:41:37;15.80;87.80
14733;DHT22;7457;50.960;6.830;2023-05-23T07:44:03;15.80;87.70
14733;DHT22;7457;50.960;6.830;2023-05-23T07:46:28;15.90;87.20
14733;DHT22;7457;50.960;6.830;2023-05-23T07:48:54;15.90;86.70
14733;DHT22;7457;50.960;6.830;2023-05-23T07:51:21;15.90;86.50
14733;DHT22;7457;50.960;6.830;2023-05-23T07:53:46;15.90;86.10
14733;DHT22;7457;50.960;6.830;2023-05-23T07:56:12;15.80;85.70
14733;DHT22;7457;50.960;6.830;2023-05-23T07:58:38;15.70;85.70
14733;DHT22;7457;50.960;6.830;2023-05-23T08:01:03;15.60;85.60
14733;DHT22;7457;50.960;6.830;2023-05-23T08:03:29;15.50;85.60
14733;DHT22;7457;50.960;6.830;2023-05-23T08:05:55;15.50;85.80
14733;DHT22;7457;50.960;6.830;2023-05-23T08:08:21;15.40;86.00
14733;DHT22;7457;50.960;6.830;2023-05-23T08:10:47;15.40;86.10
14733;DHT22;7457;50.960;6.830;2023-05-23T08:13:12;15.40;86.00
14733;DHT22;7457;50.960;6.830;2023-05-23T08:15:38;15.40;86.40
14733;DHT22;7457;50.960;6.830;2023-05-23T08:18:04;15.50;87.20
14733;DHT22;7457;50.960;6.830;2023-05-23T08:20:30;15.50;87.00
14733;DHT22;7457;50.960;6.830;2023-05-23T08:23:00;15.60;86.70
14733;DHT22;7457;50.960;6.830;2023-05-23T08:25:26;15.80;86.40
14733;DHT22;7457;50.960;6.830;2023-05-23T08:27:55;15.80;86.00
14733;DHT22;7457;50.960;6.830;2023-05-23T08:30:22;15.90;85.70
14733;DHT22;7457;50.960;6.830;2023-05-23T08:32:52;15.90;86.00
14733;DHT22;7457;50.960;6.830;2023-05-23T08:35:19;15.90;86.10
14733;DHT22;7457;50.960;6.830;2023-05-23T08:37:45;15.90;85.90
14733;DHT22;7457;50.960;6.830;2023-05-23T08:40:13;16.00;85.70
14733;DHT22;7457;50.960;6.830;2023-05-23T08:42:42;15.90;85.40
14733;DHT22;7457;50.960;6.830;2023-05-23T08:45:08;15.80;85.20
14733;DHT22;7457;50.960;6.830;2023-05-23T08:47:36;15.60;85.40
14733;DHT22;7457;50.960;6.830;2023-05-23T08:50:13;15.50;85.70
14733;DHT22;7457;50.960;6.830;2023-05-23T08:55:10;15.30;86.30
14733;DHT22;7457;50.960;6.830;2023-05-23T08:57:37;15.30;86.60
14733;DHT22;7457;50.960;6.830;2023-05-23T09:00:04;15.30;86.40
14733;DHT22;7457;50.960;6.830;2023-05-23T09:02:36;15.30;86.40
14733;DHT22;7457;50.960;6.830;2023-05-23T09:05:02;15.20;86.00
14733;DHT22;7457;50.960;6.830;2023-05-23T09:07:29;15.20;86.10
14733;DHT22;7457;50.960;6.830;2023-05-23T09:09:55;15.10;86.10
14733;DHT22;7457;50.960;6.830;2023-05-23T09:12:21;14.90;86.80
14733;DHT22;7457;50.960;6.830;2023-05-23T09:14:47;14.80;87.40
14733;DHT22;7457;50.960;6.830;2023-05-23T09:17:17;14.70;87.60
14733;DHT22;7457;50.960;6.830;2023-05-23T09:19:43;14.60;87.50
14733;DHT22;7457;50.960;6.830;2023-05-23T09:22:11;14.60;87.60
14733;DHT22;7457;50.960;6.830;2023-05-23T09:24:37;14.50;87.50
14733;DHT22;7457;50.960;6.830;2023-05-23T09:27:04;14.40;87.60
14733;DHT22;7457;50.960;6.830;2023-05-23T09:29:31;14.40;87.90
14733;DHT22;7457;50.960;6.830;2023-05-23T09:32:16;14.30;88.40
14733;DHT22;7457;50.960;6.830;2023-05-23T09:35:01;14.40;88.80
14733;DHT22;7457;50.960;6.830;2023-05-23T09:37:36;14.40;88.70
14733;DHT22;7457;50.960;6.830;2023-05-23T09:40:08;14.40;88.60
14733;DHT22;7457;50.960;6.830;2023-05-23T09:42:34;14.50;88.50
14733;DHT22;7457;50.960;6.830;2023-05-23T09:45:01;14.50;88.30
14733;DHT22;7457;50.960;6.830;2023-05-23T09:47:27;14.50;87.60
14733;DHT22;7457;50.960;6.830;2023-05-23T09:49:53;14.50;87.30
14733;DHT22;7457;50.960;6.830;2023-05-23T09:52:19;14.40;87.40
14733;DHT22;7457;50.960;6.830;2023-05-23T09:54:46;14.40;87.80
14733;DHT22;7457;50.960;6.830;2023-05-23T09:57:13;14.30;88.40
14733;DHT22;7457;50.960;6.830;2023-05-23T09:59:40;14.40;89.30
14733;DHT22;7457;50.960;6.830;2023-05-23T10:02:10;14.50;89.80
14733;DHT22;7457;50.960;6.830;2023-05-23T10:04:38;14.70;89.80
14733;DHT22;7457;50.960;6.830;2023-05-23T10:07:11;15.00;89.40
14733;DHT22;7457;50.960;6.830;2023-05-23T10:09:41;15.20;88.50
14733;DHT22;7457;50.960;6.830;2023-05-23T10:12:39;15.30;87.10
14733;DHT22;7457;50.960;6.830;2023-05-23T10:15:08;15.40;86.90
14733;DHT22;7457;50.960;6.830;2023-05-23T10:17:38;15.50;87.20
14733;DHT22;7457;50.960;6.830;2023-05-23T10:20:14;15.80;87.00
14733;DHT22;7457;50.960;6.830;2023-05-23T10:22:41;16.10;85.60
14733;DHT22;7457;50.960;6.830;2023-05-23T10:25:07;16.40;86.30
14733;DHT22;7457;50.960;6.830;2023-05-23T10:27:36;17.00;84.90
14733;DHT22;7457;50.960;6.830;2023-05-23T10:30:02;17.40;82.70
14733;DHT22;7457;50.960;6.830;2023-05-23T10:32:29;17.50;80.90
14733;DHT22;7457;50.960;6.830;2023-05-23T10:35:36;17.50;80.30
14733;DHT22;7457;50.960;6.830;2023-05-23T10:40:48;17.00;78.10
14733;DHT22;7457;50.960;6.830;2023-05-23T10:43:28;16.60;78.00
14733;DHT22;7457;50.960;6.830;2023-05-23T10:45:54;16.20;78.90
14733;DHT22;7457;50.960;6.830;2023-05-23T10:51:04;15.70;80.30
14733;DHT22;7457;50.960;6.830;2023-05-23T10:53:31;15.50;80.40
14733;DHT22;7457;50.960;6.830;2023-05-23T10:55:56;15.40;80.80
14733;DHT22;7457;50.960;6.830;2023-05-23T10:58:22;15.30;81.00
14733;DHT22;7457;50.960;6.830;2023-05-23T11:00:53;15.30;80.60
14733;DHT22;7457;50.960;6.830;2023-05-23T11:06:28;15.10;80.60
14733;DHT22;7457;50.960;6.830;2023-05-23T11:09:02;15.00;81.40
14733;DHT22;7457;50.960;6.830;2023-05-23T11:14:20;15.20;81.60
14733;DHT22;7457;50.960;6.830;2023-05-23T11:16:55;15.30;81.40
14733;DHT22;7457;50.960;6.830;2023-05-23T11:19:22;15.50;81.30
14733;DHT22;7457;50.960;6.830;2023-05-23T11:21:57;15.60;80.20
14733;DHT22;7457;50.960;6.830;2023-05-23T11:27:12;15.60;79.30
14733;DHT22;7457;50.960;6.830;2023-05-23T11:29:37;15.70;79.70
14733;DHT22;7457;50.960;6.830;2023-05-23T11:32:12;15.90;80.00
14733;DHT22;7457;50.960;6.830;2023-05-23T11:34:38;16.10;79.70
14733;DHT22;7457;50.960;6.830;2023-05-23T11:37:05;16.50;80.00
14733;DHT22;7457;50.960;6.830;2023-05-23T11:39:30;16.90;78.10
14733;DHT22;7457;50.960;6.830;2023-05-23T11:42:00;17.20;77.10
14733;DHT22;7457;50.960;6.830;2023-05-23T11:44:26;17.50;76.60
14733;DHT22;7457;50.960;6.830;2023-05-23T11:47:18;18.00;77.20
14733;DHT22;7457;50.960;6.830;2023-05-23T11:49:45;18.80;75.60
14733;DHT22;7457;50.960;6.830;2023-05-23T11:52:11;19.50;73.40
14733;DHT22;7457;50.960;6.830;2023-05-23T11:54:40;19.90;71.90
14733;DHT22;7457;50.960;6.830;2023-05-23T11:57:06;20.30;70.30
14733;DHT22;7457;50.960;6.830;2023-05-23T11:59:33;20.50;68.60
14733;DHT22;7457;50.960;6.830;2023-05-23T12:01:58;20.40;67.70
14733;DHT22;7457;50.960;6.830;2023-05-23T12:04:24;20.20;66.50
14733;DHT22;7457;50.960;6.830;2023-05-23T12:06:51;20.10;66.10
14733;DHT22;7457;50.960;6.830;2023-05-23T12:09:16;19.80;65.90
14733;DHT22;7457;50.960;6.830;2023-05-23T12:11:43;19.50;66.30
14733;DHT22;7457;50.960;6.830;2023-05-23T12:14:14;19.40;66.20
14733;DHT22;7457;50.960;6.830;2023-05-23T12:16:42;19.20;65.90
14733;DHT22;7457;50.960;6.830;2023-05-23T12:19:09;19.10;65.60
14733;DHT22;7457;50.960;6.830;2023-05-23T12:21:45;18.90;65.50
14733;DHT22;7457;50.960;6.830;2023-05-23T12:24:22;18.60;65.80
14733;DHT22;7457;50.960;6.830;2023-05-23T12:26:56;18.30;66.00
14733;DHT22;7457;50.960;6.830;2023-05-23T12:29:31;18.20;66.90
14733;DHT22;7457;50.960;6.830;2023-05-23T12:31:58;18.10;66.80
14733;DHT22;7457;50.960;6.830;2023-05-23T12:34:24;18.00;66.90
14733;DHT22;7457;50.960;6.830;2023-05-23T12:36:57;17.90;66.80
14733;DHT22;7457;50.960;6.830;2023-05-23T12:39:24;17.90;67.10
14733;DHT22;7457;50.960;6.830;2023-05-23T12:41:53;17.90;67.30
14733;DHT22;7457;50.960;6.830;2023-05-23T12:44:23;18.00;66.80
14733;DHT22;7457;50.960;6.830;2023-05-23T12:46:48;17.90;66.60
14733;DHT22;7457;50.960;6.830;2023-05-23T12:49:14;17.80;66.90
14733;DHT22;7457;50.960;6.830;2023-05-23T12:51:40;17.70;67.10
14733;DHT22;7457;50.960;6.830;2023-05-23T12:54:07;17.70;67.00
14733;DHT22;7457;50.960;6.830;2023-05-23T12:56:33;17.60;67.20
14733;DHT22;7457;50.960;6.830;2023-05-23T12:58:58;17.60;67.50
14733;DHT22;7457;50.960;6.830;2023-05-23T13:01:26;17.60;66.90
14733;DHT22;7457;50.960;6.830;2023-05-23T13:03:52;17.50;66.90
14733;DHT22;7457;50.960;6.830;2023-05-23T13:06:18;17.50;67.50
14733;DHT22;7457;50.960;6.830;2023-05-23T13:08:43;17.70;68.70
14733;DHT22;7457;50.960;6.830;2023-05-23T13:11:09;18.00;66.90
14733;DHT22;7457;50.960;6.830;2023-05-23T13:13:35;18.40;66.40
14733;DHT22;7457;50.960;6.830;2023-05-23T13:16:01;18.70;65.80
14733;DHT22;7457;50.960;6.830;2023-05-23T13:18:26;18.90;64.10
14733;DHT22;7457;50.960;6.830;2023-05-23T13:20:52;18.90;63.00
14733;DHT22;7457;50.960;6.830;2023-05-23T13:23:18;18.80;62.70
14733;DHT22;7457;50.960;6.830;2023-05-23T13:25:44;18.70;63.70
14733;DHT22;7457;50.960;6.830;2023-05-23T13:28:09;18.60;63.40
14733;DHT22;7457;50.960;6.830;2023-05-23T13:30:35;18.60;63.10
14733;DHT22;7457;50.960;6.830;2023-05-23T13:33:01;18.60;63.60
14733;DHT22;7457;50.960;6.830;2023-05-23T13:35:26;18.80;63.60
14733;DHT22;7457;50.960;6.830;2023-05-23T13:37:52;19.00;63.30
14733;DHT22;7457;50.960;6.830;2023-05-23T13:40:19;19.30;62.70
14733;DHT22;7457;50.960;6.830;2023-05-23T13:42:47;19.40;60.00
14733;DHT22;7457;50.960;6.830;2023-05-23T13:45:13;19.30;60.00
14733;DHT22;7457;50.960;6.830;2023-05-23T13:47:39;19.20;60.70
14733;DHT22;7457;50.960;6.830;2023-05-23T13:50:06;19.10;58.60
14733;DHT22;7457;50.960;6.830;2023-05-23T13:52:32;18.90;58.50
14733;DHT22;7457;50.960;6.830;2023-05-23T13:54:58;18.60;59.70
14733;DHT22;7457;50.960;6.830;2023-05-23T13:57:26;18.50;60.40
14733;DHT22;7457;50.960;6.830;2023-05-23T13:59:51;18.50;60.00
14733;DHT22;7457;50.960;6.830;2023-05-23T14:02:17;18.40;59.80
14733;DHT22;7457;50.960;6.830;2023-05-23T14:04:43;18.30;60.70
14733;DHT22;7457;50.960;6.830;2023-05-23T14:07:08;18.30;60.60
14733;DHT22;7457;50.960;6.830;2023-05-23T14:09:34;18.50;61.10
14733;DHT22;7457;50.960;6.830;2023-05-23T14:12:00;18.60;60.00
14733;DHT22;7457;50.960;6.830;2023-05-23T14:14:26;18.70;60.50
14733;DHT22;7457;50.960;6.830;2023-05-23T14:16:51;18.80;59.30
14733;DHT22;7457;50.960;6.830;2023-05-23T14:19:17;18.80;59.70
14733;DHT22;7457;50.960;6.830;2023-05-23T14:21:43;18.90;59.20
14733;DHT22;7457;50.960;6.830;2023-05-23T14:24:09;19.00;58.30
14733;DHT22;7457;50.960;6.830;2023-05-23T14:26:35;19.00;57.80
14733;DHT22;7457;50.960;6.830;2023-05-23T14:29:01;19.00;58.30
14733;DHT22;7457;50.960;6.830;2023-05-23T14:31:27;19.00;57.10
14733;DHT22;7457;50.960;6.830;2023-05-23T14:33:52;18.90;56.90
14733;DHT22;7457;50.960;6.830;2023-05-23T14:36:18;18.80;56.40
14733;DHT22;7457;50.960;6.830;2023-05-23T14:38:44;18.60;57.00
14733;DHT22;7457;50.960;6.830;2023-05-23T14:41:12;18.40;57.00
14733;DHT22;7457;50.960;6.830;2023-05-23T14:43:38;18.20;57.40
14733;DHT22;7457;50.960;6.830;2023-05-23T14:46:03;18.10;58.20
14733;DHT22;7457;50.960;6.830;2023-05-23T14:48:29;18.10;58.40
14733;DHT22;7457;50.960;6.830;2023-05-23T14:50:55;18.10;58.80
14733;DHT22;7457;50.960;6.830;2023-05-23T14:53:21;18.20;58.80
14733;DHT22;7457;50.960;6.830;2023-05-23T14:55:48;18.30;57.50
14733;DHT22;7457;50.960;6.830;2023-05-23T14:58:14;18.30;57.80
14733;DHT22;7457;50.960;6.830;2023-05-23T15:00:40;18.30;57.70
14733;DHT22;7457;50.960;6.830;2023-05-23T15:03:05;18.30;57.30
14733;DHT22;7457;50.960;6.830;2023-05-23T15:05:32;18.20;57.20
14733;DHT22;7457;50.960;6.830;2023-05-23T15:07:58;18.10;57.00
14733;DHT22;7457;50.960;6.830;2023-05-23T15:10:23;17.90;57.90
14733;DHT22;7457;50.960;6.830;2023-05-23T15:12:49;17.70;57.60
14733;DHT22;7457;50.960;6.830;2023-05-23T15:15:14;17.60;58.40
14733;DHT22;7457;50.960;6.830;2023-05-23T15:17:47;17.60;58.70
14733;DHT22;7457;50.960;6.830;2023-05-23T15:20:12;17.60;58.90
14733;DHT22;7457;50.960;6.830;2023-05-23T15:22:38;17.60;59.40
14733;DHT22;7457;50.960;6.830;2023-05-23T15:25:04;17.60;59.80
14733;DHT22;7457;50.960;6.830;2023-05-23T15:27:30;17.70;59.40
14733;DHT22;7457;50.960;6.830;2023-05-23T15:29:55;17.90;59.40
14733;DHT22;7457;50.960;6.830;2023-05-23T15:32:21;18.10;59.20
14733;DHT22;7457;50.960;6.830;2023-05-23T15:34:46;18.30;57.90
14733;DHT22;7457;50.960;6.830;2023-05-23T15:37:12;18.30;57.60
14733;DHT22;7457;50.960;6.830;2023-05-23T15:39:38;18.30;57.00
14733;DHT22;7457;50.960;6.830;2023-05-23T15:42:04;18.20;56.60
14733;DHT22;7457;50.960;6.830;2023-05-23T15:44:29;18.10;57.30
14733;DHT22;7457;50.960;6.830;2023-05-23T15:46:55;18.00;57.30
14733;DHT22;7457;50.960;6.830;2023-05-23T15:49:21;18.00;57.10
14733;DHT22;7457;50.960;6.830;2023-05-23T15:51:46;18.00;57.50
14733;DHT22;7457;50.960;6.830;2023-05-23T15:54:13;18.10;57.50
14733;DHT22;7457;50.960;6.830;2023-05-23T15:56:38;18.20;57.40
14733;DHT22;7457;50.960;6.830;2023-05-23T15:59:04;18.20;56.70
14733;DHT22;7457;50.960;6.830;2023-05-23T16:01:29;18.30;57.10
14733;DHT22;7457;50.960;6.830;2023-05-23T16:03:55;18.40;56.40
14733;DHT22;7457;50.960;6.830;2023-05-23T16:06:22;18.40;55.90
14733;DHT22;7457;50.960;6.830;2023-05-23T16:08:48;18.40;56.30
14733;DHT22;7457;50.960;6.830;2023-05-23T16:11:13;18.40;56.50